默认 日期 大小 文件数 浏览量 最新下载 xml
21 03 21磁力链接相关资源由用户搜索指令自动获取,结果来源于网络,本站不存储任何资料,亦不承担任何责任,请于24小时内删除,搜索到33707个磁力,显示前4000条数据,用时47ms。
    {"RARBG.txt": 30, "oro-ope.18.03.21.zupa.nfo": 7419, "oro-ope.18.03.21.zupa.wmv": 1198239957}
创建时间: 2018-11-08 09:30:48 大小:1.12 GB 文件数量:3 热度:12 最近下载:2024-05-17 09:27:01
    {"Sample": {"xxx-db.12.03.21.isis.loves-sample.mp4": 51225792}, "RARBG.com.txt": 34, "xxx-db.12.03.21.isis.loves.mp4": 2668953077, "xxx-db.12.03.21.isis.loves.nfo": 338}
创建时间: 2018-11-08 09:58:14 大小:2.53 GB 文件数量:4 热度:25 最近下载:2025-08-01 13:38:10
    {"rydenarmani.18.03.21.cumming.with.a.helping.hand[N1C].mp4": 202456335}
创建时间: 2018-11-08 11:20:27 大小:193.08 MB 文件数量:1 热度:13 最近下载:2025-08-01 23:47:05
    {"HardX - Cadence Lux (Squirt Deluxe) 03.21.17.mp4": 456065079}
创建时间: 2018-11-08 12:26:29 大小:434.94 MB 文件数量:1 热度:20 最近下载:2025-04-19 10:21:02
    {"RARBG.txt": 30, "sweetheartvideo.18.03.21.cherie.deville.and.brandi.love.brandi.craves.a.sex.slave.mp4": 1516823206, "sweetheartvideo.18.03.21.cherie.deville.and.brandi.love.brandi.craves.a.sex.slave.nfo": 5241}
创建时间: 2018-11-08 13:26:30 大小:1.41 GB 文件数量:3 热度:94 最近下载:2025-10-09 22:25:03
    {"RARBG.com.txt": 34, "mlib.14.03.21.charlee.chase.and.eva.karera.a.milf.role.model.mp4": 4226861180, "mlib.14.03.21.charlee.chase.and.eva.karera.a.milf.role.model.nfo": 7013}
创建时间: 2018-11-08 17:29:28 大小:3.94 GB 文件数量:3 热度:176 最近下载:2025-09-15 11:06:02
    {"001.jpg": 2646737, "002.jpg": 3029278, "003.jpg": 2848970, "004.jpg": 2478564, "005.jpg": 2095168, "006.jpg": 2754267, "007.jpg": 2880170, "008.jpg": 2964021, "009.jpg": 2915861, "010.jpg": 3969026, "011.jpg": 4389726, "012.jpg": 3053171, "013.jpg": ...
创建时间: 2018-11-08 19:41:33 大小:231.11 MB 文件数量:91 热度:34 最近下载:2025-10-07 01:57:02
    {"Sample": {"cumt.13.03.21.alice.romain.fucking.is.a.pleasure-sample.mp4": 33281548}, "RARBG.com.txt": 34, "cumt.13.03.21.alice.romain.fucking.is.a.pleasure.mp4": 1551908700, "cumt.13.03.21.alice.romain.fucking.is.a.pleasure.nfo": 6988}
创建时间: 2018-11-08 21:33:39 大小:1.48 GB 文件数量:4 热度:30 最近下载:2025-08-01 08:39:02
    {"p4l.nfo": 3634, "file_id.diz": 178, "RARBG.com.txt": 34, "8574-h-001.jpg": 2370763, "8574-h-002.jpg": 2825773, "8574-h-003.jpg": 1980452, "8574-h-004.jpg": 2764507, "8574-h-005.jpg": 2089523, "8574-h-006.jpg": 2142075, "8574-h-007.jpg": 2315453, "8574-h- ...
创建时间: 2018-11-08 21:54:23 大小:496.86 MB 文件数量:176 热度:29 最近下载:2025-04-06 17:33:03
    {"RARBG.txt": 30, "julesjordan.18.03.21.angela.white.mp4": 2206235790, "julesjordan.18.03.21.angela.white.nfo": 5185}
创建时间: 2018-11-09 08:18:09 大小:2.05 GB 文件数量:3 热度:95 最近下载:2025-08-26 18:19:01
    {"h-torrent.link.url": 61, "(成年コミック) [あまゆみ] 制服恋慕 [2009-03-21].zip": 31223249}
创建时间: 2018-11-09 08:55:41 大小:29.78 MB 文件数量:2 热度:17 最近下载:2025-08-08 23:30:02
    {"WorldWide Torrents.png": 79417, "Use Me - MJ Fields.epub": 812969, "Relics - Tim Lebbon.epub": 1239470, "Chalk - Paul Cornell.epub": 823129, "Play - Melissa Young.epub": 224165, "Elle - Philippe Djian.epub": 198839, "Hellworld - Tom Leveen.epub": 1881699 ...
创建时间: 2018-11-09 09:36:52 大小:109.84 MB 文件数量:173 热度:23 最近下载:2025-08-04 23:33:13
    {"RARBG.com.txt": 34, "ans.15.03.21.samantha.snow.sexy.shoes.mp4": 2028624295, "ans.15.03.21.samantha.snow.sexy.shoes.nfo": 6974}
创建时间: 2018-11-09 11:25:04 大小:1.89 GB 文件数量:3 热度:30 最近下载:2025-08-14 05:26:01
    {"settings.reg": 9498, "Прочитать.txt": 1569, "Revo Uninstaller Pro 3.2.1.exe": 11814075, "Распаковка portable.cmd": 1353, "Тихая установка.cmd": 1341, "Тихая установка по сценарию.cmd": 1362, "Создание сценария установки.cmd": 1354}
创建时间: 2018-11-09 19:58:13 大小:11.28 MB 文件数量:7 热度:16 最近下载:2025-05-13 02:49:02
    {"fugli.nfo": 12158, "file_id.diz": 663, "RARBG.com.txt": 34, "RARBG.COM_XXX_BANNER.jpg": 517081, "aidrafoxts022214-p01_001.jpg": 1209678, "aidrafoxts022214-p01_002.jpg": 1177351, "aidrafoxts022214-p01_003.jpg": 1090035, "aidrafoxts022214-p01_004.jpg": ...
创建时间: 2018-11-09 22:37:21 大小:92.9 MB 文件数量:100 热度:14 最近下载:2025-04-12 17:59:02
    {"file_id.diz": 110, "gagball.nfo": 281, "JPF_1667.jpg": 442226, "JPF_1668.jpg": 464176, "JPF_1669.jpg": 498819, "JPF_1670.jpg": 493776, "JPF_1671.jpg": 400940, "JPF_1672.jpg": 395828, "JPF_1673.jpg": 537360, "JPF_1674.jpg": 531631, "JPF_1675.jpg": 512589, ...
创建时间: 2018-11-09 23:28:23 大小:29.63 MB 文件数量:66 热度:38 最近下载:2025-09-06 21:38:03
    {"oyll.17.03.20.lien.parker.and.silvie.sunny.lesbian.love.in.the.tub.mp4": 1250997362}
创建时间: 2018-11-10 01:32:19 大小:1.17 GB 文件数量:1 热度:53 最近下载:2025-09-06 20:32:03
    {"BoostSpeed-8.2.1.exe": 15265206, "Тихая установка ENG.cmd": 29, "Тихая установка RUS.cmd": 27, "Тихая распаковка ENG.cmd": 27, "Тихая распаковка RUS.cmd": 27}
创建时间: 2018-11-10 01:39:11 大小:14.56 MB 文件数量:5 热度:15 最近下载:2025-07-24 13:52:01
    {"PornFidelity - Nina Elle (Splitting the Prize) 03.21.17.mp4": 467331334}
创建时间: 2018-11-10 03:48:06 大小:445.68 MB 文件数量:1 热度:39 最近下载:2025-08-04 11:48:07
    {"sexymomma.17.03.21.francesca.le.and.ivy.winters[N1C].mp4": 782203907}
创建时间: 2018-11-10 08:42:07 大小:745.97 MB 文件数量:1 热度:20 最近下载:2025-08-01 05:59:05